Ahoskie, NC

12:10 AM EDT af October 25, 2014 (GMT -0400)
Tri County | Change Station
CLOSE
Current Station
Airport
Location: Ahoskie,
Elevation: 69 ft
Nearby Weather Stations

Elev 69 ft 36.30 °N, 77.17 °W | Updated 15 minutes ago

klor
klor
46 °f
Feels Like 46 °f
N
0
vint baytevdik vint from tsofn[ts]

haynt
High -- | Low -- °f
--% Chance of Precip.
Yesterday
High -- | Low -- °f
Precip. -- in
7:24 AM 6:19 PM
New, 2% visible
druk 29.98 in
zeevdikeyt 10.0 mayln
Clouds klor
toypunkt 45 °f
faykhtkeyt 97%
Rainfall 0.00 in
Snow Depth Not available.
UV 0 out of 12
Pollen 1.90 out of 12
Air Quality Not available.
Flu Activity Local Activity
METAR KASJ 250355Z AUTO 00000KT 10SM CLR 08/07 A2998 RMK AO2 T00750070 PWINO

More Conditions Fewer Conditions

druk 29.98 in
zeevdikeyt 10.0 mayln
Clouds klor
toypunkt 45 °f
faykhtkeyt 97%
Rainfall 0.00 in
Snow Depth Not available.
UV 0 out of 12
Pollen 1.90 out of 12
Air Quality Not available.
Flu Activity Local Activity
METAR KASJ 250355Z AUTO 00000KT 10SM CLR 08/07 A2998 RMK AO2 T00750070 PWINO

More Conditions Fewer Conditions

10-Day Weather Forecast

Almanac

Astronomy

Oct. 25, 2014 Rise Set
Actual Time 7:24 AM EDT 6:19 PM EDT
Civil Twilight 6:57 AM EDT 6:45 PM EDT
Nautical Twilight 6:27 AM EDT 7:15 PM EDT
Astronomical Twilight 5:57 AM EDT 7:45 PM EDT
Moon 8:58 AM EDT 7:43 PM EDT
Length Of Visible Light 11h 47m
Length of Day
10h 55m
Tomorrow will be 2m 7s shorter.
New, 2% of the Moon is Illuminated
haynt
New
Oct 30
First Quarter
Nov 6
Full
Nov 14
Last Quarter
Nov 22
New

Yesterday's Extremes

State Highs State Lows

Community

WunderPhotos

Upload Photos

1,764,779 photos uploaded!

Nearby

Snow Depth

Station Depth Elevation
No new snow has been reported.

Earthquake Activity

City Distance Mag. Time & Date
No recent earthquake activity has been reported nearby.
Minimum magnitude displayed is 2.5.

Coastal Water Temperatures

plats temperatur
Oregon Inlet Marina, NC 64.0 °f
Duck Pier, NC 66.0 °f
Hatteras, NC 64.9 °f
Money Point, VA 66.0 °f
Sewells Point, VA 63.0 °f
Chesapeake Bay Bridge Tunnel, VA 64.9 °f

Nearby Weather Stations